METAR - Ísland

Uppfært síðast 13.04.2021 - kl. 17:40

SIGMET síðustu 6 klst.

Engin SIGMET skeyti bárust síðustu 6 klst.

METAR síðustu 3 klst

Flugv.TímiSkeyti
BIAR2021-04-13 17.00METAR BIAR 131700Z VRB05KT 9999 FEW060 09/M02 Q1024
BIAR2021-04-13 16.00METAR BIAR 131600Z 18018KT 9999 FEW050 09/M01 Q1024
BIAR2021-04-13 15.00METAR BIAR 131500Z 17020KT CAVOK 09/00 Q1024
BIBD2021-04-13 16.00METAR BIBD 131600Z 20014KT 9999 FEW020 BKN030 07/02 Q1024
BIBD2021-04-13 15.00METAR BIBD 131500Z 20014KT 9999 FEW020 BKN030 07/03 Q1025
BIEG2021-04-13 17.00METAR BIEG 131700Z 24010KT 9999 FEW040 08/M02 Q1024
BIEG2021-04-13 16.00METAR BIEG 131600Z 25008KT CAVOK 08/M02 Q1025
BIEG2021-04-13 15.00METAR BIEG 131500Z 25010KT CAVOK 08/M02 Q1025
BIGR2021-04-13 16.00METAR BIGR 131600Z 26015KT 9999 BKN038 05/02 Q1024
BIHU2021-04-13 17.00METAR BIHU 131700Z 26007KT 9999 FEW060 10/M01 Q1023
BIHU2021-04-13 16.00METAR BIHU 131600Z 23007KT 9999 FEW050 10/M01 Q1023
BIHU2021-04-13 15.00METAR BIHU 131500Z 29008KT 9999 FEW050 09/M02 Q1023
BIIS2021-04-13 17.00METAR BIIS 131700Z 24012KT 9999 BKN035 07/M00 Q1023
BIIS2021-04-13 16.00METAR BIIS 131600Z 24011KT 9999 BKN035 08/M00 Q1023
BIIS2021-04-13 15.00METAR BIIS 131500Z 23012KT 9999 BKN035 07/M00 Q1023
BIKF2021-04-13 17.30METAR BIKF 131730Z 20009KT 9999 FEW021TCU SCT027 08/03 Q1026
BIKF2021-04-13 17.00METAR BIKF 131700Z 19010KT 9999 FEW022TCU BKN027 08/03 Q1026
BIKF2021-04-13 16.30METAR BIKF 131630Z 18010KT 150V210 9999 BKN025 08/02 Q1026
BIKF2021-04-13 16.00METAR BIKF 131600Z 20009KT 170V230 9999 BKN026 08/02 Q1026
BIKF2021-04-13 15.30METAR BIKF 131530Z 20009KT 150V240 9999 BKN026 08/02 Q1026
BIKF2021-04-13 15.00METAR BIKF 131500Z 21009KT 180V250 9999 FEW023 BKN028 08/03 Q1026
BIRK2021-04-13 17.00METAR BIRK 131700Z 24006KT 9999 FEW031 SCT036 09/02 Q1026
BIRK2021-04-13 16.00METAR BIRK 131600Z 24005KT 200V270 9999 SCT030 BKN038 09/02 Q1026
BIRK2021-04-13 15.00METAR BIRK 131500Z 27005KT 240V300 9999 FEW028 BKN038 08/02 Q1026
BIVM2021-04-13 17.00METAR BIVM 131700Z 16005KT 120V220 9999 SCT025 08/05 Q1026
BIVM2021-04-13 16.00METAR BIVM 131600Z 13006KT 9999 SCT025 07/05 Q1027
BIVM2021-04-13 15.00METAR BIVM 131500Z 13008KT 9999 BKN025 07/05 Q1027

Textaspár eru skrifaðar af vakthafandi veðurfræðingi á Veðurstofu Íslands.




Aðrir tengdir vefir



Þetta vefsvæði byggir á Eplica